sensor_id;sensor_type;location;lat;lon;timestamp;pressure;altitude;pressure_sealevel;temperature;humidity
7407;BME280;3745;56.964;24.128;2022-07-10T00:00:29;100939.91;;;15.55;100.00
7407;BME280;3745;56.964;24.128;2022-07-10T00:02:55;100894.06;;;15.31;100.00
7407;BME280;3745;56.964;24.128;2022-07-10T00:05:22;100924.63;;;15.49;100.00
7407;BME280;3745;56.964;24.128;2022-07-10T00:07:49;100902.56;;;15.30;100.00
7407;BME280;3745;56.964;24.128;2022-07-10T00:10:15;100926.31;;;15.50;100.00
7407;BME280;3745;56.964;24.128;2022-07-10T00:12:41;100934.81;;;15.49;100.00
7407;BME280;3745;56.964;24.128;2022-07-10T00:15:07;100927.97;;;15.54;100.00
7407;BME280;3745;56.964;24.128;2022-07-10T00:17:33;100923.75;;;15.56;100.00
7407;BME280;3745;56.964;24.128;2022-07-10T00:19:59;100897.41;;;15.39;100.00
7407;BME280;3745;56.964;24.128;2022-07-10T00:22:25;100870.28;;;15.26;100.00
7407;BME280;3745;56.964;24.128;2022-07-10T00:24:51;100863.53;;;15.19;100.00
7407;BME280;3745;56.964;24.128;2022-07-10T00:27:17;100896.56;;;15.42;100.00
7407;BME280;3745;56.964;24.128;2022-07-10T00:29:43;100916.09;;;15.53;100.00
7407;BME280;3745;56.964;24.128;2022-07-10T00:32:09;100710.97;;;14.34;100.00
7407;BME280;3745;56.964;24.128;2022-07-10T00:34:35;100879.59;;;15.36;100.00
7407;BME280;3745;56.964;24.128;2022-07-10T00:37:02;100909.31;;;15.52;100.00
7407;BME280;3745;56.964;24.128;2022-07-10T00:39:28;100902.50;;;15.51;100.00
7407;BME280;3745;56.964;24.128;2022-07-10T00:41:54;100910.16;;;15.50;100.00
7407;BME280;3745;56.964;24.128;2022-07-10T00:44:19;100878.78;;;15.31;100.00
7407;BME280;3745;56.964;24.128;2022-07-10T00:46:46;100894.09;;;15.28;100.00
7407;BME280;3745;56.964;24.128;2022-07-10T00:49:12;100909.31;;;15.43;100.00
7407;BME280;3745;56.964;24.128;2022-07-10T00:51:38;100766.09;;;14.52;100.00
7407;BME280;3745;56.964;24.128;2022-07-10T00:54:05;100887.28;;;15.24;100.00
7407;BME280;3745;56.964;24.128;2022-07-10T00:56:31;100900.84;;;15.32;100.00
7407;BME280;3745;56.964;24.128;2022-07-10T00:58:57;100844.06;;;15.00;100.00
7407;BME280;3745;56.964;24.128;2022-07-10T01:01:23;100694.03;;;14.18;100.00
7407;BME280;3745;56.964;24.128;2022-07-10T01:03:49;100893.19;;;15.34;100.00
7407;BME280;3745;56.964;24.128;2022-07-10T01:06:16;100838.97;;;14.95;100.00
7407;BME280;3745;56.964;24.128;2022-07-10T01:08:42;100798.28;;;14.76;100.00
7407;BME280;3745;56.964;24.128;2022-07-10T01:11:09;100883.94;;;15.19;100.00
7407;BME280;3745;56.964;24.128;2022-07-10T01:13:36;100892.38;;;15.24;100.00
7407;BME280;3745;56.964;24.128;2022-07-10T01:16:02;100822.06;;;14.78;100.00
7407;BME280;3745;56.964;24.128;2022-07-10T01:18:28;100892.38;;;15.24;100.00
7407;BME280;3745;56.964;24.128;2022-07-10T01:20:57;100877.13;;;15.15;100.00
7407;BME280;3745;56.964;24.128;2022-07-10T01:23:23;100856.75;;;15.09;100.00
7407;BME280;3745;56.964;24.128;2022-07-10T01:25:50;100839.81;;;14.99;100.00
7407;BME280;3745;56.964;24.128;2022-07-10T01:28:16;100892.41;;;15.21;100.00
7407;BME280;3745;56.964;24.128;2022-07-10T01:30:43;100884.78;;;15.18;100.00
7407;BME280;3745;56.964;24.128;2022-07-10T01:33:09;100855.97;;;14.98;100.00
7407;BME280;3745;56.964;24.128;2022-07-10T01:35:34;100889.03;;;15.16;100.00
7407;BME280;3745;56.964;24.128;2022-07-10T01:38:00;100882.28;;;15.00;100.00
7407;BME280;3745;56.964;24.128;2022-07-10T01:40:26;100892.47;;;15.06;100.00
7407;BME280;3745;56.964;24.128;2022-07-10T01:42:51;100892.47;;;15.06;100.00
7407;BME280;3745;56.964;24.128;2022-07-10T01:45:17;100889.09;;;15.04;100.00
7407;BME280;3745;56.964;24.128;2022-07-10T01:47:43;100882.28;;;15.00;100.00
7407;BME280;3745;56.964;24.128;2022-07-10T01:50:09;100729.69;;;14.03;100.00
7407;BME280;3745;56.964;24.128;2022-07-10T01:52:35;100885.69;;;14.96;100.00
7407;BME280;3745;56.964;24.128;2022-07-10T01:55:01;100728.00;;;14.05;100.00
7407;BME280;3745;56.964;24.128;2022-07-10T01:57:27;100882.31;;;14.94;100.00
7407;BME280;3745;56.964;24.128;2022-07-10T01:59:53;100880.59;;;14.93;100.00
7407;BME280;3745;56.964;24.128;2022-07-10T02:02:19;100880.59;;;14.99;100.00
7407;BME280;3745;56.964;24.128;2022-07-10T02:04:44;100875.53;;;14.87;100.00
7407;BME280;3745;56.964;24.128;2022-07-10T02:07:12;100866.25;;;14.63;100.00
7407;BME280;3745;56.964;24.128;2022-07-10T02:09:38;100882.38;;;14.73;100.00
7407;BME280;3745;56.964;24.128;2022-07-10T02:12:05;100890.84;;;14.75;100.00
7407;BME280;3745;56.964;24.128;2022-07-10T02:14:31;100733.16;;;13.81;100.00
7407;BME280;3745;56.964;24.128;2022-07-10T02:16:57;100890.84;;;14.78;100.00
7407;BME280;3745;56.964;24.128;2022-07-10T02:19:23;100875.56;;;14.78;100.00
7407;BME280;3745;56.964;24.128;2022-07-10T02:21:49;100800.97;;;14.33;100.00
7407;BME280;3745;56.964;24.128;2022-07-10T02:24:14;100877.22;;;14.88;100.00
7407;BME280;3745;56.964;24.128;2022-07-10T02:26:40;100895.03;;;14.95;100.00
7407;BME280;3745;56.964;24.128;2022-07-10T02:29:06;100890.81;;;14.93;100.00
7407;BME280;3745;56.964;24.128;2022-07-10T02:31:31;100887.41;;;14.91;100.00
7407;BME280;3745;56.964;24.128;2022-07-10T02:34:06;100887.44;;;14.88;100.00
7407;BME280;3745;56.964;24.128;2022-07-10T02:36:32;100888.25;;;14.93;100.00
7407;BME280;3745;56.964;24.128;2022-07-10T02:38:57;100890.81;;;14.90;100.00
7407;BME280;3745;56.964;24.128;2022-07-10T02:41:23;100860.28;;;14.72;100.00
7407;BME280;3745;56.964;24.128;2022-07-10T02:43:48;100899.31;;;14.92;100.00
7407;BME280;3745;56.964;24.128;2022-07-10T02:46:14;100906.06;;;14.99;100.00
7407;BME280;3745;56.964;24.128;2022-07-10T02:48:39;100894.22;;;14.95;100.00
7407;BME280;3745;56.964;24.128;2022-07-10T02:51:05;100898.44;;;14.97;100.00
7407;BME280;3745;56.964;24.128;2022-07-10T02:53:31;100873.84;;;14.77;100.00
7407;BME280;3745;56.964;24.128;2022-07-10T02:55:56;100897.63;;;14.85;100.00
7407;BME280;3745;56.964;24.128;2022-07-10T02:58:22;100892.50;;;14.94;100.00
7407;BME280;3745;56.964;24.128;2022-07-10T03:00:48;100856.03;;;14.78;100.00
7407;BME280;3745;56.964;24.128;2022-07-10T03:03:14;100841.63;;;14.63;100.00
7407;BME280;3745;56.964;24.128;2022-07-10T03:05:43;100889.09;;;14.98;100.00
7407;BME280;3745;56.964;24.128;2022-07-10T03:08:10;100882.31;;;14.97;100.00
7407;BME280;3745;56.964;24.128;2022-07-10T03:10:35;100877.28;;;14.73;100.00
7407;BME280;3745;56.964;24.128;2022-07-10T03:13:01;100888.31;;;14.82;100.00
7407;BME280;3745;56.964;24.128;2022-07-10T03:15:27;100834.84;;;14.53;100.00
7407;BME280;3745;56.964;24.128;2022-07-10T03:17:52;100869.63;;;14.68;100.00
7407;BME280;3745;56.964;24.128;2022-07-10T03:20:18;100836.56;;;14.51;100.00
7407;BME280;3745;56.964;24.128;2022-07-10T03:22:44;100890.81;;;14.84;100.00
7407;BME280;3745;56.964;24.128;2022-07-10T03:25:10;100850.09;;;14.65;100.00
7407;BME280;3745;56.964;24.128;2022-07-10T03:27:35;100882.31;;;14.94;100.00
7407;BME280;3745;56.964;24.128;2022-07-10T03:30:02;100685.69;;;13.65;100.00
7407;BME280;3745;56.964;24.128;2022-07-10T03:32:28;100876.44;;;14.61;100.00
7407;BME280;3745;56.964;24.128;2022-07-10T03:34:53;100875.63;;;14.50;100.00
7407;BME280;3745;56.964;24.128;2022-07-10T03:37:19;100867.16;;;14.45;100.00
7407;BME280;3745;56.964;24.128;2022-07-10T03:39:45;100882.41;;;14.51;100.00
7407;BME280;3745;56.964;24.128;2022-07-10T03:42:11;100826.41;;;13.94;100.00
7407;BME280;3745;56.964;24.128;2022-07-10T03:44:37;100877.34;;;14.36;100.00
7407;BME280;3745;56.964;24.128;2022-07-10T03:47:03;100887.50;;;14.30;100.00
7407;BME280;3745;56.964;24.128;2022-07-10T03:49:29;100875.63;;;14.23;100.00
7407;BME280;3745;56.964;24.128;2022-07-10T03:51:58;100863.72;;;14.13;100.00
7407;BME280;3745;56.964;24.128;2022-07-10T03:54:24;100829.81;;;13.96;100.00
7407;BME280;3745;56.964;24.128;2022-07-10T03:56:49;100872.25;;;14.33;100.00
7407;BME280;3745;56.964;24.128;2022-07-10T03:59:34;100882.41;;;14.63;100.00
7407;BME280;3745;56.964;24.128;2022-07-10T04:01:59;100827.25;;;14.40;100.00
7407;BME280;3745;56.964;24.128;2022-07-10T04:04:25;100875.53;;;14.81;100.00
7407;BME280;3745;56.964;24.128;2022-07-10T04:06:51;100861.94;;;14.85;100.00
7407;BME280;3745;56.964;24.128;2022-07-10T04:09:16;100851.78;;;14.76;100.00
7407;BME280;3745;56.964;24.128;2022-07-10T04:11:42;100822.88;;;14.77;100.00
7407;BME280;3745;56.964;24.128;2022-07-10T04:14:07;100841.63;;;14.73;100.00
7407;BME280;3745;56.964;24.128;2022-07-10T04:16:33;100858.56;;;14.80;100.00
7407;BME280;3745;56.964;24.128;2022-07-10T04:18:59;100834.81;;;14.72;100.00
7407;BME280;3745;56.964;24.128;2022-07-10T04:21:24;100855.09;;;15.03;100.00
7407;BME280;3745;56.964;24.128;2022-07-10T04:23:50;100829.63;;;14.93;100.00
7407;BME280;3745;56.964;24.128;2022-07-10T04:26:16;100771.13;;;14.72;100.00
7407;BME280;3745;56.964;24.128;2022-07-10T04:28:41;100827.88;;;15.10;100.00
7407;BME280;3745;56.964;24.128;2022-07-10T04:31:07;100828.63;;;15.27;100.00
7407;BME280;3745;56.964;24.128;2022-07-10T04:33:32;100795.50;;;15.21;100.00
7407;BME280;3745;56.964;24.128;2022-07-10T04:35:59;100851.41;;;15.63;100.00
7407;BME280;3745;56.964;24.128;2022-07-10T04:38:24;100836.09;;;15.60;100.00
7407;BME280;3745;56.964;24.128;2022-07-10T04:40:50;100817.44;;;15.58;100.00
7407;BME280;3745;56.964;24.128;2022-07-10T04:43:16;100836.84;;;15.81;100.00
7407;BME280;3745;56.964;24.128;2022-07-10T04:45:42;100841.16;;;15.66;100.00
7407;BME280;3745;56.964;24.128;2022-07-10T04:48:07;100771.69;;;15.28;100.00
7407;BME280;3745;56.964;24.128;2022-07-10T04:50:33;100842.81;;;15.73;100.00
7407;BME280;3745;56.964;24.128;2022-07-10T04:52:59;100840.28;;;15.69;100.00
7407;BME280;3745;56.964;24.128;2022-07-10T04:55:24;100839.38;;;15.84;100.00
7407;BME280;3745;56.964;24.128;2022-07-10T04:57:50;100846.00;;;16.03;100.00
7407;BME280;3745;56.964;24.128;2022-07-10T05:00:16;100760.31;;;15.73;100.00
7407;BME280;3745;56.964;24.128;2022-07-10T05:02:42;100834.06;;;16.08;100.00
7407;BME280;3745;56.964;24.128;2022-07-10T05:05:08;100807.63;;;16.12;100.00
7407;BME280;3745;56.964;24.128;2022-07-10T05:07:34;100826.16;;;16.32;100.00
7407;BME280;3745;56.964;24.128;2022-07-10T05:10:00;100818.56;;;16.26;100.00
7407;BME280;3745;56.964;24.128;2022-07-10T05:12:26;100826.94;;;16.40;100.00
7407;BME280;3745;56.964;24.128;2022-07-10T05:14:51;100816.59;;;16.49;100.00
7407;BME280;3745;56.964;24.128;2022-07-10T05:17:17;100802.25;;;16.38;100.00
7407;BME280;3745;56.964;24.128;2022-07-10T05:19:43;100813.94;;;16.63;100.00
7407;BME280;3745;56.964;24.128;2022-07-10T05:22:09;100764.66;;;16.50;100.00
7407;BME280;3745;56.964;24.128;2022-07-10T05:24:35;100801.00;;;16.76;100.00
7407;BME280;3745;56.964;24.128;2022-07-10T05:27:01;100806.00;;;16.89;100.00
7407;BME280;3745;56.964;24.128;2022-07-10T05:29:27;100807.59;;;16.96;100.00
7407;BME280;3745;56.964;24.128;2022-07-10T05:31:53;100795.53;;;17.07;100.00
7407;BME280;3745;56.964;24.128;2022-07-10T05:34:19;100803.06;;;17.16;100.00
7407;BME280;3745;56.964;24.128;2022-07-10T05:36:44;100797.13;;;17.14;100.00
7407;BME280;3745;56.964;24.128;2022-07-10T05:39:10;100781.84;;;17.08;100.00
7407;BME280;3745;56.964;24.128;2022-07-10T05:41:36;100798.59;;;17.30;100.00
7407;BME280;3745;56.964;24.128;2022-07-10T05:44:02;100801.84;;;17.41;100.00
7407;BME280;3745;56.964;24.128;2022-07-10T05:46:28;100806.69;;;17.61;100.00
7407;BME280;3745;56.964;24.128;2022-07-10T05:48:54;100804.81;;;17.73;100.00
7407;BME280;3745;56.964;24.128;2022-07-10T05:51:19;100804.00;;;17.71;100.00
7407;BME280;3745;56.964;24.128;2022-07-10T05:53:45;100699.63;;;17.32;100.00
7407;BME280;3745;56.964;24.128;2022-07-10T05:56:11;100801.09;;;17.93;100.00
7407;BME280;3745;56.964;24.128;2022-07-10T05:58:36;100793.09;;;18.09;100.00
7407;BME280;3745;56.964;24.128;2022-07-10T06:01:02;100783.84;;;18.01;100.00
7407;BME280;3745;56.964;24.128;2022-07-10T06:03:28;100777.59;;;18.15;100.00
7407;BME280;3745;56.964;24.128;2022-07-10T06:05:54;100793.50;;;18.34;100.00
7407;BME280;3745;56.964;24.128;2022-07-10T06:08:20;100799.84;;;18.15;100.00
7407;BME280;3745;56.964;24.128;2022-07-10T06:10:46;100692.28;;;17.67;100.00
7407;BME280;3745;56.964;24.128;2022-07-10T06:13:12;100787.50;;;18.35;100.00
7407;BME280;3745;56.964;24.128;2022-07-10T06:15:38;100798.31;;;18.52;100.00
7407;BME280;3745;56.964;24.128;2022-07-10T06:18:04;100774.50;;;18.44;100.00
7407;BME280;3745;56.964;24.128;2022-07-10T06:20:30;100792.72;;;18.76;100.00
7407;BME280;3745;56.964;24.128;2022-07-10T06:22:57;100764.28;;;18.87;100.00
7407;BME280;3745;56.964;24.128;2022-07-10T06:25:23;100658.59;;;18.33;100.00
7407;BME280;3745;56.964;24.128;2022-07-10T06:27:49;100726.16;;;18.70;100.00
7407;BME280;3745;56.964;24.128;2022-07-10T06:30:15;100790.25;;;19.12;100.00
7407;BME280;3745;56.964;24.128;2022-07-10T06:32:40;100794.66;;;19.45;100.00
7407;BME280;3745;56.964;24.128;2022-07-10T06:35:07;100785.56;;;19.67;100.00
7407;BME280;3745;56.964;24.128;2022-07-10T06:37:33;100741.25;;;19.59;100.00
7407;BME280;3745;56.964;24.128;2022-07-10T06:39:59;100775.97;;;20.08;100.00
7407;BME280;3745;56.964;24.128;2022-07-10T06:42:25;100766.69;;;20.36;100.00
7407;BME280;3745;56.964;24.128;2022-07-10T06:44:51;100766.00;;;20.60;100.00
7407;BME280;3745;56.964;24.128;2022-07-10T06:47:18;100763.59;;;20.83;100.00
7407;BME280;3745;56.964;24.128;2022-07-10T06:50:07;100722.72;;;20.74;100.00
7407;BME280;3745;56.964;24.128;2022-07-10T06:52:34;100751.81;;;20.76;100.00
7407;BME280;3745;56.964;24.128;2022-07-10T06:55:04;100664.75;;;20.33;100.00
7407;BME280;3745;56.964;24.128;2022-07-10T06:57:30;100760.84;;;20.89;100.00
7407;BME280;3745;56.964;24.128;2022-07-10T06:59:56;100758.00;;;20.98;100.00
7407;BME280;3745;56.964;24.128;2022-07-10T07:02:21;100714.22;;;20.72;100.00
7407;BME280;3745;56.964;24.128;2022-07-10T07:04:47;100745.06;;;20.72;100.00
7407;BME280;3745;56.964;24.128;2022-07-10T07:07:13;100678.75;;;20.23;100.00
7407;BME280;3745;56.964;24.128;2022-07-10T07:09:40;100747.88;;;20.34;100.00
7407;BME280;3745;56.964;24.128;2022-07-10T07:12:08;100703.94;;;20.11;100.00
7407;BME280;3745;56.964;24.128;2022-07-10T07:14:34;100727.25;;;20.66;100.00
7407;BME280;3745;56.964;24.128;2022-07-10T07:17:00;100724.31;;;20.78;100.00
7407;BME280;3745;56.964;24.128;2022-07-10T07:19:35;100741.28;;;21.41;100.00
7407;BME280;3745;56.964;24.128;2022-07-10T07:22:20;100747.59;;;21.57;100.00
7407;BME280;3745;56.964;24.128;2022-07-10T07:25:06;100704.50;;;21.10;100.00
7407;BME280;3745;56.964;24.128;2022-07-10T07:27:36;100720.06;;;21.05;100.00
7407;BME280;3745;56.964;24.128;2022-07-10T07:30:04;100742.22;;;21.11;100.00
7407;BME280;3745;56.964;24.128;2022-07-10T07:32:30;100743.22;;;21.33;100.00
7407;BME280;3745;56.964;24.128;2022-07-10T07:34:56;100742.34;;;21.60;100.00
7407;BME280;3745;56.964;24.128;2022-07-10T07:37:22;100718.72;;;20.93;100.00
7407;BME280;3745;56.964;24.128;2022-07-10T07:39:49;100742.03;;;20.58;100.00
7407;BME280;3745;56.964;24.128;2022-07-10T07:42:14;100691.88;;;20.13;100.00
7407;BME280;3745;56.964;24.128;2022-07-10T07:44:40;100661.47;;;19.97;100.00
7407;BME280;3745;56.964;24.128;2022-07-10T07:47:05;100731.25;;;20.15;100.00
7407;BME280;3745;56.964;24.128;2022-07-10T07:49:31;100719.16;;;19.86;100.00
7407;BME280;3745;56.964;24.128;2022-07-10T07:51:57;100736.41;;;20.15;100.00
7407;BME280;3745;56.964;24.128;2022-07-10T07:54:22;100734.41;;;20.24;100.00
7407;BME280;3745;56.964;24.128;2022-07-10T07:56:48;100713.84;;;20.26;100.00
7407;BME280;3745;56.964;24.128;2022-07-10T07:59:13;100742.31;;;20.49;100.00
7407;BME280;3745;56.964;24.128;2022-07-10T08:01:39;100730.09;;;20.57;100.00
7407;BME280;3745;56.964;24.128;2022-07-10T08:04:04;100723.44;;;20.50;100.00
7407;BME280;3745;56.964;24.128;2022-07-10T08:06:30;100715.84;;;20.45;100.00
7407;BME280;3745;56.964;24.128;2022-07-10T08:08:56;100750.72;;;20.83;100.00
7407;BME280;3745;56.964;24.128;2022-07-10T08:11:21;100745.69;;;21.10;100.00
7407;BME280;3745;56.964;24.128;2022-07-10T08:13:48;100732.44;;;21.22;100.00
7407;BME280;3745;56.964;24.128;2022-07-10T08:16:13;100730.63;;;21.25;100.00
7407;BME280;3745;56.964;24.128;2022-07-10T08:18:39;100744.22;;;21.55;100.00
7407;BME280;3745;56.964;24.128;2022-07-10T08:21:05;100693.22;;;21.14;100.00
7407;BME280;3745;56.964;24.128;2022-07-10T08:23:30;100749.38;;;21.55;100.00
7407;BME280;3745;56.964;24.128;2022-07-10T08:25:56;100725.72;;;21.44;100.00
7407;BME280;3745;56.964;24.128;2022-07-10T08:28:22;100749.59;;;21.49;100.00
7407;BME280;3745;56.964;24.128;2022-07-10T08:30:48;100739.25;;;21.23;100.00
7407;BME280;3745;56.964;24.128;2022-07-10T08:33:13;100751.22;;;21.25;100.00
7407;BME280;3745;56.964;24.128;2022-07-10T08:35:39;100758.19;;;21.48;100.00
7407;BME280;3745;56.964;24.128;2022-07-10T08:38:08;100749.09;;;21.64;100.00
7407;BME280;3745;56.964;24.128;2022-07-10T08:40:35;100742.53;;;21.54;100.00
7407;BME280;3745;56.964;24.128;2022-07-10T08:43:02;100750.88;;;21.62;100.00
7407;BME280;3745;56.964;24.128;2022-07-10T08:45:31;100750.56;;;21.71;100.00
7407;BME280;3745;56.964;24.128;2022-07-10T08:48:01;100746.88;;;21.78;100.00
7407;BME280;3745;56.964;24.128;2022-07-10T08:50:32;100751.81;;;21.84;100.00
7407;BME280;3745;56.964;24.128;2022-07-10T08:53:23;100736.25;;;21.87;100.00
7407;BME280;3745;56.964;24.128;2022-07-10T08:55:49;100750.78;;;21.65;100.00
7407;BME280;3745;56.964;24.128;2022-07-10T08:58:16;100750.78;;;21.65;100.00
7407;BME280;3745;56.964;24.128;2022-07-10T09:00:43;100752.84;;;21.80;100.00
7407;BME280;3745;56.964;24.128;2022-07-10T09:03:09;100714.81;;;21.62;100.00
7407;BME280;3745;56.964;24.128;2022-07-10T09:05:34;100743.84;;;21.67;100.00
7407;BME280;3745;56.964;24.128;2022-07-10T09:08:01;100744.91;;;21.86;100.00
7407;BME280;3745;56.964;24.128;2022-07-10T09:10:28;100750.41;;;22.02;100.00
7407;BME280;3745;56.964;24.128;2022-07-10T09:15:24;100754.50;;;22.07;100.00
7407;BME280;3745;56.964;24.128;2022-07-10T09:18:02;100672.94;;;21.31;100.00
7407;BME280;3745;56.964;24.128;2022-07-10T09:20:31;100754.03;;;21.70;100.00
7407;BME280;3745;56.964;24.128;2022-07-10T09:22:58;100725.31;;;21.56;100.00
7407;BME280;3745;56.964;24.128;2022-07-10T09:25:33;100706.38;;;21.57;100.00
7407;BME280;3745;56.964;24.128;2022-07-10T09:28:00;100749.56;;;22.01;100.00
7407;BME280;3745;56.964;24.128;2022-07-10T09:30:38;100674.81;;;21.50;100.00
7407;BME280;3745;56.964;24.128;2022-07-10T09:33:25;100733.69;;;21.89;100.00
7407;BME280;3745;56.964;24.128;2022-07-10T09:36:04;100755.88;;;21.93;100.00
7407;BME280;3745;56.964;24.128;2022-07-10T09:41:28;100738.78;;;21.64;100.00
7407;BME280;3745;56.964;24.128;2022-07-10T09:46:23;100651.25;;;21.12;100.00
7407;BME280;3745;56.964;24.128;2022-07-10T09:49:13;100728.06;;;21.76;100.00
7407;BME280;3745;56.964;24.128;2022-07-10T09:51:41;100730.63;;;22.02;100.00
7407;BME280;3745;56.964;24.128;2022-07-10T09:54:08;100745.47;;;22.21;100.00
7407;BME280;3745;56.964;24.128;2022-07-10T09:56:50;100753.31;;;22.41;100.00
7407;BME280;3745;56.964;24.128;2022-07-10T09:59:20;100756.34;;;22.52;100.00
7407;BME280;3745;56.964;24.128;2022-07-10T10:01:49;100707.78;;;22.17;100.00
7407;BME280;3745;56.964;24.128;2022-07-10T10:04:19;100719.91;;;22.38;100.00
7407;BME280;3745;56.964;24.128;2022-07-10T10:06:53;100726.41;;;22.71;100.00
7407;BME280;3745;56.964;24.128;2022-07-10T10:09:28;100766.19;;;23.32;100.00
7407;BME280;3745;56.964;24.128;2022-07-10T10:12:43;100755.34;;;23.66;100.00
7407;BME280;3745;56.964;24.128;2022-07-10T10:15:11;100744.94;;;23.26;100.00
7407;BME280;3745;56.964;24.128;2022-07-10T10:17:38;100707.72;;;23.09;100.00
7407;BME280;3745;56.964;24.128;2022-07-10T10:20:07;100763.56;;;23.34;100.00
7407;BME280;3745;56.964;24.128;2022-07-10T10:22:53;100760.53;;;23.22;100.00
7407;BME280;3745;56.964;24.128;2022-07-10T10:25:25;100725.56;;;23.36;100.00
7407;BME280;3745;56.964;24.128;2022-07-10T10:27:52;100758.38;;;23.34;100.00
7407;BME280;3745;56.964;24.128;2022-07-10T10:30:18;100720.31;;;22.95;100.00
7407;BME280;3745;56.964;24.128;2022-07-10T10:32:44;100635.09;;;22.75;100.00
7407;BME280;3745;56.964;24.128;2022-07-10T10:35:10;100688.72;;;23.10;100.00
7407;BME280;3745;56.964;24.128;2022-07-10T10:37:38;100714.78;;;23.04;100.00
7407;BME280;3745;56.964;24.128;2022-07-10T10:40:06;100640.25;;;22.75;100.00
7407;BME280;3745;56.964;24.128;2022-07-10T10:42:44;100749.16;;;23.50;100.00
7407;BME280;3745;56.964;24.128;2022-07-10T10:45:22;100747.94;;;23.37;100.00
7407;BME280;3745;56.964;24.128;2022-07-10T10:50:52;100739.78;;;23.26;100.00
7407;BME280;3745;56.964;24.128;2022-07-10T10:58:28;100732.66;;;22.65;100.00
7407;BME280;3745;56.964;24.128;2022-07-10T11:01:24;100741.19;;;22.89;100.00
7407;BME280;3745;56.964;24.128;2022-07-10T11:09:28;100758.41;;;22.89;100.00
7407;BME280;3745;56.964;24.128;2022-07-10T11:12:02;100750.94;;;23.04;100.00
7407;BME280;3745;56.964;24.128;2022-07-10T11:14:31;100727.31;;;22.70;100.00
7407;BME280;3745;56.964;24.128;2022-07-10T11:16:58;100738.28;;;22.29;100.00
7407;BME280;3745;56.964;24.128;2022-07-10T11:19:25;100736.47;;;22.31;100.00
7407;BME280;3745;56.964;24.128;2022-07-10T11:22:03;100726.16;;;22.07;100.00
7407;BME280;3745;56.964;24.128;2022-07-10T11:27:29;100741.13;;;22.21;100.00
7407;BME280;3745;56.964;24.128;2022-07-10T11:30:00;100743.53;;;22.49;100.00
7407;BME280;3745;56.964;24.128;2022-07-10T11:32:27;100751.97;;;22.77;100.00
7407;BME280;3745;56.964;24.128;2022-07-10T11:34:53;100754.41;;;22.82;100.00
7407;BME280;3745;56.964;24.128;2022-07-10T11:37:19;100755.91;;;22.64;100.00
7407;BME280;3745;56.964;24.128;2022-07-10T11:39:45;100728.28;;;22.20;100.00
7407;BME280;3745;56.964;24.128;2022-07-10T11:42:11;100748.50;;;22.32;100.00
7407;BME280;3745;56.964;24.128;2022-07-10T11:44:36;100755.59;;;22.00;100.00
7407;BME280;3745;56.964;24.128;2022-07-10T11:47:03;100759.28;;;21.67;100.00
7407;BME280;3745;56.964;24.128;2022-07-10T11:49:30;100714.44;;;21.22;100.00
7407;BME280;3745;56.964;24.128;2022-07-10T11:52:03;100764.94;;;21.52;100.00
7407;BME280;3745;56.964;24.128;2022-07-10T11:54:30;100767.34;;;21.56;100.00
7407;BME280;3745;56.964;24.128;2022-07-10T11:56:55;100705.94;;;21.18;100.00
7407;BME280;3745;56.964;24.128;2022-07-10T11:59:26;100764.41;;;21.15;100.00
7407;BME280;3745;56.964;24.128;2022-07-10T12:01:53;100772.03;;;20.88;100.00
7407;BME280;3745;56.964;24.128;2022-07-10T12:04:21;100745.53;;;20.26;100.00
7407;BME280;3745;56.964;24.128;2022-07-10T12:06:52;100792.78;;;20.21;100.00
7407;BME280;3745;56.964;24.128;2022-07-10T12:09:23;100785.25;;;19.79;100.00
7407;BME280;3745;56.964;24.128;2022-07-10T12:12:03;100711.94;;;18.95;100.00
7407;BME280;3745;56.964;24.128;2022-07-10T12:14:30;100774.91;;;19.09;100.00
7407;BME280;3745;56.964;24.128;2022-07-10T12:16:56;100793.94;;;18.99;100.00
7407;BME280;3745;56.964;24.128;2022-07-10T12:19:27;100812.56;;;18.67;100.00
7407;BME280;3745;56.964;24.128;2022-07-10T12:21:56;100846.56;;;18.29;100.00
7407;BME280;3745;56.964;24.128;2022-07-10T12:24:22;100861.06;;;17.76;100.00
7407;BME280;3745;56.964;24.128;2022-07-10T12:26:49;100707.81;;;16.33;100.00
7407;BME280;3745;56.964;24.128;2022-07-10T12:29:21;100899.44;;;17.11;100.00
7407;BME280;3745;56.964;24.128;2022-07-10T12:32:01;100867.78;;;16.43;100.00
7407;BME280;3745;56.964;24.128;2022-07-10T12:34:35;100784.25;;;15.58;100.00
7407;BME280;3745;56.964;24.128;2022-07-10T12:37:10;100931.00;;;16.20;100.00
7407;BME280;3745;56.964;24.128;2022-07-10T12:39:38;100925.88;;;16.20;100.00
7407;BME280;3745;56.964;24.128;2022-07-10T12:42:06;100973.41;;;16.42;100.00
7407;BME280;3745;56.964;24.128;2022-07-10T12:44:42;100993.91;;;16.33;100.00
7407;BME280;3745;56.964;24.128;2022-07-10T12:47:12;100983.19;;;15.73;100.00
7407;BME280;3745;56.964;24.128;2022-07-10T12:49:57;100982.34;;;15.71;100.00
7407;BME280;3745;56.964;24.128;2022-07-10T12:52:28;100992.59;;;15.62;100.00
7407;BME280;3745;56.964;24.128;2022-07-10T12:55:16;100970.47;;;15.64;100.00
7407;BME280;3745;56.964;24.128;2022-07-10T12:57:57;100933.06;;;15.57;100.00
7407;BME280;3745;56.964;24.128;2022-07-10T13:00:29;100965.22;;;15.92;100.00
7407;BME280;3745;56.964;24.128;2022-07-10T13:03:07;100737.97;;;14.78;100.00
7407;BME280;3745;56.964;24.128;2022-07-10T13:05:45;100960.72;;;16.28;100.00
7407;BME280;3745;56.964;24.128;2022-07-10T13:08:14;100960.50;;;16.53;100.00
7407;BME280;3745;56.964;24.128;2022-07-10T13:10:55;100781.59;;;15.72;100.00
7407;BME280;3745;56.964;24.128;2022-07-10T13:13:21;100902.38;;;16.79;100.00
7407;BME280;3745;56.964;24.128;2022-07-10T13:15:47;100881.06;;;16.82;100.00
7407;BME280;3745;56.964;24.128;2022-07-10T13:18:23;100755.50;;;16.31;100.00